Scio, OR

7:53 PM PDT on August 28, 2014 (GMT -0700)
Sekavec Farm | Change Station
CLOSE
Current Station
Personal Weather Station
Location: Scio, OR
Elevation: 479 ft
Nearby Weather Stations

Elev 479 ft 44.74 °N, 122.84 °W | Updated 11 minutes ago

Clear
Clear
79.3 °F
Feels Like 80 °F
N
2.7
Wind Variable Wind from NE

Today
High -- | Low -- °F
--% Chance of Precip.
Yesterday
High -- | Low -- °F
Precip. -- in
6:29 AM 7:55 PM
Waxing Crescent, 11% visible
Pressure 29.98 in
Visibility 10.0 miles
Clouds Clear
Heat Index 80 °F
Dew Point 56 °F
Humidity 44%
Rainfall 0.00 in
Snow Depth Not available.
UV 0 out of 12
Pollen 3.60 out of 12
Ozone Good
PM2.5 Good
Flu Activity Not available.
METAR KSLE 290156Z 32011KT 10SM CLR 28/13 A2998 RMK AO2 SLP150 T02830128

More Conditions Fewer Conditions

Pressure 29.98 in
Visibility 10.0 miles
Clouds Clear
Heat Index 80 °F
Dew Point 56 °F
Humidity 44%
Rainfall 0.00 in
Snow Depth Not available.
UV 0 out of 12
Pollen 3.60 out of 12
Ozone Good
PM2.5 Good
Flu Activity Not available.
METAR KSLE 290156Z 32011KT 10SM CLR 28/13 A2998 RMK AO2 SLP150 T02830128

More Conditions Fewer Conditions

10-Day Weather Forecast

Almanac

Astronomy

Aug. 28, 2014 Rise Set
Actual Time 6:29 AM PDT 7:55 PM PDT
Civil Twilight 5:58 AM PDT 8:25 PM PDT
Nautical Twilight 5:21 AM PDT 9:02 PM PDT
Astronomical Twilight 4:42 AM PDT 9:41 PM PDT
Moon 9:35 AM PDT (8/28) 9:11 PM PDT (8/28)
Length of Visible Light 14h 26m
Length of Day
13h 25m
Tomorrow will be 2m 58s shorter.
Waxing Crescent, 11% of the Moon is Illuminated
Today
Waxing Crescent
Sep 2
First Quarter
Sep 8
Full
Sep 15
Last Quarter
Sep 24
New

Today's Extremes

State Highs State Lows

Community

WunderPhotos

Upload Photos

1,748,133 photos uploaded!

Nearby

Air Quality

  Air Quality AQ Index Pollutant
Yesterday Moderate
PM2.5
Yesterday Good
OZONE
Current Good
OZONE
Current Good
PM2.5
Thursday Moderate
PM2.5
Friday Moderate
PM2.5

Snow Depth

Station Depth Elevation
Daly Lake 0 in 3600 ft
Santiam Junction 0 in 3750 ft
Peavine Ridge 3 in 3500 ft
Hogg Pass 0 in 4760 ft
Clackamas Lake 0 in 3400 ft

Earthquake Activity

City Distance Mag. Time & Date
No recent earthquake activity has been reported nearby.
Minimum magnitude displayed is 2.5.

Coastal Water Temperatures

Place Temperature
No Stations Reporting

Nearby Weather Stations